createdAt,value
2023-03-11T00:00:39.673Z,92.23
2023-03-11T00:03:17.085Z,92.84
2023-03-11T00:05:46.623Z,93.14
2023-03-11T00:08:16.449Z,93.03
2023-03-11T00:10:46.385Z,93.66
2023-03-11T00:13:18.687Z,93.92
2023-03-11T00:15:49.818Z,93.91
2023-03-11T00:18:17.484Z,93.58
2023-03-11T00:20:47.818Z,93.23
2023-03-11T00:23:16.621Z,93.48
2023-03-11T00:25:46.321Z,92.61
2023-03-11T00:28:13.997Z,93.43
2023-03-11T00:30:44.773Z,93.00
2023-03-11T00:33:15.662Z,93.15
2023-03-11T00:35:42.912Z,93.00
2023-03-11T00:38:16.110Z,92.61
2023-03-11T00:40:44.295Z,92.16
2023-03-11T00:43:10.661Z,91.99
2023-03-11T00:45:45.879Z,91.38
2023-03-11T00:48:15.777Z,90.55
2023-03-11T00:50:43.214Z,90.53
2023-03-11T00:53:10.263Z,90.71
2023-03-11T00:55:36.772Z,90.30
2023-03-11T00:58:06.699Z,90.27
2023-03-11T01:00:38.176Z,90.12
2023-03-11T01:03:04.511Z,89.73
2023-03-11T01:05:39.683Z,89.57
2023-03-11T01:08:08.361Z,89.27
2023-03-11T01:10:35.594Z,88.54
2023-03-11T01:13:02.347Z,89.16
2023-03-11T01:15:38.106Z,89.28
2023-03-11T01:18:13.757Z,88.58
2023-03-11T01:20:40.206Z,88.61
2023-03-11T01:23:12.440Z,88.74
2023-03-11T01:25:41.252Z,88.88
2023-03-11T01:28:07.912Z,88.82
2023-03-11T01:30:41.420Z,87.79
2023-03-11T01:33:15.868Z,88.60
2023-03-11T01:35:42.527Z,88.98
2023-03-11T01:38:09.753Z,89.38
2023-03-11T01:40:45.832Z,89.51
2023-03-11T01:43:37.425Z,89.92
2023-03-11T01:46:34.140Z,90.19
2023-03-11T01:49:04.460Z,90.28
2023-03-11T01:51:41.368Z,90.56
2023-03-11T01:54:19.306Z,91.31
2023-03-11T01:56:46.641Z,91.18
2023-03-11T01:59:17.291Z,91.49
2023-03-11T02:02:01.282Z,91.13
2023-03-11T02:04:29.162Z,91.68
2023-03-11T02:06:56.838Z,92.00
2023-03-11T02:09:23.332Z,92.86
2023-03-11T02:11:53.021Z,92.32
2023-03-11T02:14:20.562Z,91.17
2023-03-11T02:16:49.250Z,91.73
2023-03-11T02:19:23.210Z,91.55
2023-03-11T02:21:52.532Z,90.83
2023-03-11T02:24:41.383Z,90.63
2023-03-11T02:27:17.960Z,90.70
2023-03-11T02:29:46.166Z,90.22
2023-03-11T02:32:15.822Z,89.19
2023-03-11T02:34:47.683Z,89.08
2023-03-11T02:37:20.677Z,89.31
2023-03-11T02:39:49.729Z,90.00
2023-03-11T02:42:32.187Z,89.13
2023-03-11T02:45:04.372Z,89.39
2023-03-11T02:47:37.666Z,89.34
2023-03-11T02:50:05.616Z,89.65
2023-03-11T02:52:35.769Z,89.68
2023-03-11T02:55:02.573Z,89.36
2023-03-11T02:57:28.923Z,90.00
2023-03-11T02:59:55.353Z,90.30
2023-03-11T03:02:21.669Z,90.44
2023-03-11T03:04:53.610Z,90.72
2023-03-11T03:07:23.663Z,89.34
2023-03-11T03:09:50.119Z,89.55
2023-03-11T03:12:21.524Z,89.58
2023-03-11T03:14:54.631Z,89.60
2023-03-11T03:17:22.197Z,89.25
2023-03-11T03:19:48.885Z,89.50
2023-03-11T03:22:18.318Z,90.10
2023-03-11T03:24:46.848Z,90.65
2023-03-11T03:27:13.201Z,90.93
2023-03-11T03:29:42.718Z,91.36
2023-03-11T03:32:09.183Z,91.54
2023-03-11T03:34:38.041Z,91.95
2023-03-11T03:37:04.362Z,92.63
2023-03-11T03:39:33.868Z,92.33
2023-03-11T03:42:00.212Z,92.78
2023-03-11T03:44:27.802Z,93.33
2023-03-11T03:46:57.678Z,93.54
2023-03-11T03:49:24.020Z,93.72
2023-03-11T03:51:50.368Z,93.60
2023-03-11T03:54:20.903Z,93.38
2023-03-11T03:56:49.670Z,94.14
2023-03-11T03:59:15.977Z,94.31
2023-03-11T04:01:42.356Z,94.29
2023-03-11T04:04:11.163Z,94.58
2023-03-11T04:06:38.704Z,94.94
2023-03-11T04:09:05.244Z,94.79
2023-03-11T04:11:33.290Z,95.32
2023-03-11T04:13:59.736Z,94.78
2023-03-11T04:16:26.156Z,95.33
2023-03-11T04:18:54.534Z,95.20
2023-03-11T04:21:20.939Z,95.50
2023-03-11T04:23:50.321Z,95.61
2023-03-11T04:26:19.880Z,95.35
2023-03-11T04:28:47.470Z,95.67
2023-03-11T04:31:13.941Z,95.28
2023-03-11T04:33:40.376Z,95.52
2023-03-11T04:36:08.293Z,95.23
2023-03-11T04:38:35.025Z,95.47
2023-03-11T04:41:06.429Z,95.32
2023-03-11T04:43:33.769Z,95.82
2023-03-11T04:46:00.355Z,95.49
2023-03-11T04:48:26.776Z,95.38
2023-03-11T04:50:56.066Z,95.22
2023-03-11T04:53:25.316Z,95.62
2023-03-11T04:55:52.897Z,95.63
2023-03-11T04:58:22.765Z,96.11
2023-03-11T05:00:49.189Z,95.79
2023-03-11T05:03:16.826Z,96.20
2023-03-11T05:05:48.542Z,96.41
2023-03-11T05:08:14.870Z,96.08
2023-03-11T05:10:42.097Z,96.67
2023-03-11T05:13:11.072Z,96.84
2023-03-11T05:15:37.467Z,96.53
2023-03-11T05:18:07.090Z,96.38
2023-03-11T05:20:33.813Z,96.64
2023-03-11T05:23:00.285Z,97.40
2023-03-11T05:25:35.631Z,97.44
2023-03-11T05:28:07.537Z,97.27
2023-03-11T05:30:36.936Z,97.46
2023-03-11T05:33:03.553Z,96.90
2023-03-11T05:35:34.221Z,97.12
2023-03-11T05:38:03.335Z,97.08
2023-03-11T05:40:38.309Z,96.57
2023-03-11T05:43:07.045Z,96.17
2023-03-11T05:45:36.967Z,96.25
2023-03-11T05:48:14.096Z,96.55
2023-03-11T05:50:43.545Z,96.57
2023-03-11T05:53:09.944Z,96.38
2023-03-11T05:55:38.703Z,96.55
2023-03-11T05:58:05.184Z,95.94
2023-03-11T06:00:36.005Z,96.46
2023-03-11T06:03:03.599Z,96.67
2023-03-11T06:05:31.119Z,96.39
2023-03-11T06:07:57.684Z,96.86
2023-03-11T06:10:26.831Z,96.61
2023-03-11T06:12:55.558Z,96.60
2023-03-11T06:15:21.888Z,96.59
2023-03-11T06:17:48.420Z,96.82
2023-03-11T06:20:17.508Z,95.61
2023-03-11T06:22:47.819Z,95.70
2023-03-11T06:25:14.340Z,95.81
2023-03-11T06:27:43.302Z,95.37
2023-03-11T06:30:10.977Z,95.46
2023-03-11T06:32:37.600Z,95.23
2023-03-11T06:35:07.572Z,94.79
2023-03-11T06:37:36.161Z,93.88
2023-03-11T06:40:07.606Z,93.91
2023-03-11T06:42:36.725Z,93.49
2023-03-11T06:45:06.872Z,93.30
2023-03-11T06:47:33.486Z,92.64
2023-03-11T06:50:03.716Z,90.91
2023-03-11T06:52:30.072Z,90.09
2023-03-11T06:54:57.523Z,86.78
2023-03-11T06:57:26.534Z,85.56
2023-03-11T06:59:53.237Z,84.99
2023-03-11T07:02:24.008Z,84.66
2023-03-11T07:04:50.517Z,84.83
2023-03-11T07:07:17.199Z,83.59
2023-03-11T07:09:43.651Z,83.91
2023-03-11T07:12:10.228Z,83.66
2023-03-11T07:14:41.279Z,83.18
2023-03-11T07:17:07.688Z,83.54
2023-03-11T07:19:34.284Z,83.06
2023-03-11T07:22:02.915Z,82.96
2023-03-11T07:24:32.713Z,84.58
2023-03-11T07:27:03.721Z,84.25
2023-03-11T07:29:30.106Z,83.80
2023-03-11T07:31:56.558Z,82.42
2023-03-11T07:34:25.176Z,82.79
2023-03-11T07:36:51.526Z,81.87
2023-03-11T07:39:18.986Z,82.06
2023-03-11T07:41:46.183Z,81.29
2023-03-11T07:44:18.348Z,80.06
2023-03-11T07:46:45.746Z,78.85
2023-03-11T07:49:12.592Z,78.00
2023-03-11T07:51:40.079Z,77.93
2023-03-11T07:54:06.803Z,77.74
2023-03-11T07:56:36.461Z,76.82
2023-03-11T07:59:08.343Z,76.56
2023-03-11T08:01:35.055Z,75.56
2023-03-11T08:04:14.837Z,75.59
2023-03-11T08:06:48.436Z,75.86
2023-03-11T08:09:15.348Z,75.15
2023-03-11T08:11:43.264Z,74.82
2023-03-11T08:14:11.969Z,74.91
2023-03-11T08:16:39.984Z,75.19
2023-03-11T08:19:13.065Z,74.82
2023-03-11T08:21:42.102Z,71.22
2023-03-11T08:24:13.381Z,69.69
2023-03-11T08:26:44.059Z,69.33
2023-03-11T08:29:10.441Z,68.30
2023-03-11T08:31:40.169Z,67.26
2023-03-11T08:34:09.097Z,65.81
2023-03-11T08:36:35.620Z,62.00
2023-03-11T08:39:02.180Z,63.73
2023-03-11T08:41:28.819Z,62.60
2023-03-11T08:43:57.935Z,61.24
2023-03-11T08:46:36.177Z,58.44
2023-03-11T08:49:06.456Z,60.85
2023-03-11T08:51:34.367Z,58.37
2023-03-11T08:54:04.546Z,58.09
2023-03-11T08:56:31.100Z,58.49
2023-03-11T08:58:57.553Z,59.89
2023-03-11T09:01:24.007Z,57.97
2023-03-11T09:03:51.981Z,55.97
2023-03-11T09:06:21.624Z,51.04
2023-03-11T09:08:49.155Z,53.39
2023-03-11T09:11:19.872Z,53.81
2023-03-11T09:13:46.159Z,55.99
2023-03-11T09:16:19.467Z,56.08
2023-03-11T09:18:48.982Z,52.01
2023-03-11T09:21:17.938Z,50.97
2023-03-11T09:23:44.786Z,51.26
2023-03-11T09:26:14.933Z,51.85
2023-03-11T09:28:42.469Z,50.88
2023-03-11T09:31:09.787Z,49.29
2023-03-11T09:33:38.861Z,54.85
2023-03-11T09:36:06.897Z,53.21
2023-03-11T09:38:33.595Z,53.76
2023-03-11T09:41:08.297Z,55.76
2023-03-11T09:43:48.321Z,53.61
2023-03-11T09:46:17.905Z,53.61
2023-03-11T09:48:54.751Z,52.96
2023-03-11T09:51:28.168Z,51.02
2023-03-11T09:54:04.970Z,51.63
2023-03-11T09:56:35.567Z,48.28
2023-03-11T09:59:07.817Z,50.59
2023-03-11T10:01:37.409Z,47.50
2023-03-11T10:04:19.769Z,52.72
2023-03-11T10:06:49.352Z,46.84
2023-03-11T10:09:39.364Z,47.41
2023-03-11T10:12:20.088Z,49.21
2023-03-11T10:14:52.728Z,49.32
2023-03-11T10:17:33.556Z,48.49
2023-03-11T10:20:16.077Z,48.91
2023-03-11T10:22:51.290Z,50.92
2023-03-11T10:25:42.227Z,50.07
2023-03-11T10:28:24.087Z,50.38
2023-03-11T10:30:57.785Z,56.22
2023-03-11T10:33:45.310Z,51.29
2023-03-11T10:36:19.903Z,54.38
2023-03-11T10:38:48.804Z,53.48
2023-03-11T10:42:20.204Z,53.62
2023-03-11T10:44:46.737Z,47.05
2023-03-11T10:47:24.938Z,48.69
2023-03-11T10:49:54.078Z,52.12
2023-03-11T10:52:20.743Z,51.16
2023-03-11T10:54:59.374Z,48.30
2023-03-11T10:57:29.991Z,48.69
2023-03-11T11:00:01.616Z,48.68
2023-03-11T11:02:35.216Z,49.09
2023-03-11T11:05:21.925Z,45.10
2023-03-11T11:07:51.739Z,45.86
2023-03-11T11:10:24.466Z,43.17
2023-03-11T11:12:58.775Z,42.87
2023-03-11T11:15:32.207Z,47.89
2023-03-11T11:18:05.902Z,46.60
2023-03-11T11:20:33.978Z,40.52
2023-03-11T11:23:03.777Z,41.02
2023-03-11T11:25:36.893Z,42.23
2023-03-11T11:28:13.671Z,42.05
2023-03-11T11:30:55.695Z,40.95
2023-03-11T11:33:49.412Z,40.77
2023-03-11T11:36:20.669Z,37.88
2023-03-11T11:38:52.565Z,43.14
2023-03-11T11:41:24.403Z,44.07
2023-03-11T11:43:57.758Z,47.01
2023-03-11T11:46:30.433Z,41.54
2023-03-11T11:49:11.817Z,41.97
2023-03-11T11:51:45.775Z,41.45
2023-03-11T11:54:23.876Z,40.61
2023-03-11T11:56:51.843Z,40.05
2023-03-11T11:59:21.933Z,40.85
2023-03-11T12:02:16.372Z,39.80
2023-03-11T12:04:57.215Z,37.00
2023-03-11T12:07:52.705Z,40.47
2023-03-11T12:10:47.287Z,40.23
2023-03-11T12:13:44.179Z,36.93
2023-03-11T12:16:34.624Z,39.71
2023-03-11T12:19:37.454Z,34.64
2023-03-11T12:22:39.513Z,35.57
2023-03-11T12:25:25.167Z,33.28
2023-03-11T12:27:59.734Z,37.09
2023-03-11T12:30:35.933Z,36.04
2023-03-11T12:33:14.960Z,33.57
2023-03-11T12:35:51.626Z,32.57
2023-03-11T12:38:40.222Z,32.06
2023-03-11T12:41:28.102Z,30.94
2023-03-11T12:44:17.477Z,28.23
2023-03-11T12:46:59.346Z,30.23
2023-03-11T12:49:29.990Z,29.66
2023-03-11T12:52:26.216Z,28.92
2023-03-11T12:55:02.507Z,27.86
2023-03-11T12:57:45.746Z,26.78
2023-03-11T13:00:27.216Z,27.17
2023-03-11T13:03:28.917Z,30.16
2023-03-11T13:06:16.572Z,30.59
2023-03-11T13:08:50.432Z,28.53
2023-03-11T13:11:32.258Z,27.77
2023-03-11T13:14:26.598Z,31.47
2023-03-11T13:16:53.843Z,31.95
2023-03-11T13:19:29.141Z,30.44
2023-03-11T13:22:02.555Z,28.28
2023-03-11T13:24:31.792Z,28.18
2023-03-11T13:27:04.045Z,28.35
2023-03-11T13:29:40.137Z,28.36
2023-03-11T13:32:17.615Z,30.30
2023-03-11T13:35:01.526Z,29.88
2023-03-11T13:37:39.970Z,28.30
2023-03-11T13:40:32.500Z,29.68
2023-03-11T13:43:04.169Z,31.83
2023-03-11T13:45:33.692Z,30.98
2023-03-11T13:48:07.079Z,31.34
2023-03-11T13:50:56.734Z,29.22
2023-03-11T13:53:32.331Z,27.18
2023-03-11T13:56:00.672Z,27.24
2023-03-11T13:58:34.332Z,24.14
2023-03-11T14:01:03.217Z,25.58
2023-03-11T14:03:35.801Z,27.47
2023-03-11T14:06:06.480Z,30.06
2023-03-11T14:08:38.738Z,29.28
2023-03-11T14:11:09.324Z,31.48
2023-03-11T14:13:40.384Z,32.65
2023-03-11T14:16:22.535Z,32.32
2023-03-11T14:19:01.905Z,31.40
2023-03-11T14:21:28.880Z,31.39
2023-03-11T14:23:56.141Z,29.85
2023-03-11T14:26:35.079Z,28.63
2023-03-11T14:29:09.036Z,28.62
2023-03-11T14:31:40.644Z,29.70
2023-03-11T14:34:09.787Z,29.24
2023-03-11T14:36:44.560Z,32.28
2023-03-11T14:39:35.418Z,35.93
2023-03-11T14:42:33.534Z,33.84
2023-03-11T14:45:16.295Z,33.76
2023-03-11T14:48:17.149Z,34.19
2023-03-11T14:50:51.168Z,33.90
2023-03-11T14:53:33.696Z,34.74
2023-03-11T14:56:16.349Z,34.18
2023-03-11T14:58:55.724Z,30.49
2023-03-11T15:01:32.334Z,23.47
2023-03-11T15:04:12.841Z,22.72
2023-03-11T15:06:46.712Z,24.05
2023-03-11T15:09:19.156Z,21.96
2023-03-11T15:11:49.010Z,20.59
2023-03-11T15:14:35.639Z,27.30
2023-03-11T15:17:30.973Z,29.15
2023-03-11T15:20:00.594Z,27.77
2023-03-11T15:22:39.918Z,26.81
2023-03-11T15:25:17.787Z,23.91
2023-03-11T15:27:51.756Z,24.13
2023-03-11T15:30:31.442Z,23.43
2023-03-11T15:32:59.063Z,22.44
2023-03-11T15:35:27.882Z,23.17
2023-03-11T15:38:30.661Z,24.52
2023-03-11T15:40:58.236Z,24.65
2023-03-11T15:46:25.210Z,29.33
2023-03-11T15:48:54.006Z,31.60
2023-03-11T15:56:47.907Z,32.49
2023-03-11T15:59:16.933Z,33.07
2023-03-11T16:01:43.799Z,31.44
2023-03-11T16:04:19.331Z,34.13
2023-03-11T16:06:59.526Z,31.75
2023-03-11T16:09:33.261Z,30.58
2023-03-11T16:12:01.179Z,30.18
2023-03-11T16:14:31.077Z,29.43
2023-03-11T16:16:57.463Z,28.34
2023-03-11T16:19:23.907Z,28.35
2023-03-11T16:21:50.603Z,27.76
2023-03-11T16:24:23.308Z,31.60
2023-03-11T16:29:29.823Z,34.71
2023-03-11T16:31:57.503Z,36.69
2023-03-11T16:34:23.919Z,35.02
2023-03-11T16:36:50.516Z,34.81
2023-03-11T16:39:16.950Z,36.18
2023-03-11T16:41:44.689Z,39.14
2023-03-11T16:44:13.521Z,38.57
2023-03-11T16:46:40.025Z,38.79
2023-03-11T16:49:07.622Z,39.12
2023-03-11T16:51:34.147Z,38.85
2023-03-11T16:54:01.955Z,39.28
2023-03-11T16:56:28.345Z,39.76
2023-03-11T16:58:54.770Z,40.27
2023-03-11T17:01:22.278Z,40.74
2023-03-11T17:03:55.481Z,42.48
2023-03-11T17:06:21.835Z,42.55
2023-03-11T17:08:51.212Z,43.05
2023-03-11T17:11:20.470Z,42.93
2023-03-11T17:14:00.580Z,44.03
2023-03-11T17:16:40.559Z,44.54
2023-03-11T17:19:09.312Z,45.06
2023-03-11T17:21:35.825Z,46.14
2023-03-11T17:24:05.720Z,46.16
2023-03-11T17:26:32.110Z,46.56
2023-03-11T17:28:59.358Z,46.89
2023-03-11T17:31:28.082Z,47.09
2023-03-11T17:34:00.628Z,47.43
2023-03-11T17:36:28.676Z,48.83
2023-03-11T17:38:57.996Z,51.20
2023-03-11T17:41:25.931Z,52.66
2023-03-11T17:43:59.740Z,52.99
2023-03-11T17:46:26.224Z,53.86
2023-03-11T17:48:54.736Z,54.84
2023-03-11T17:51:25.307Z,55.43
2023-03-11T17:53:54.449Z,54.92
2023-03-11T17:56:21.708Z,57.49
2023-03-11T17:58:50.771Z,57.24
2023-03-11T18:01:20.342Z,57.52
2023-03-11T18:03:49.469Z,59.81
2023-03-11T18:06:22.820Z,59.34
2023-03-11T18:08:52.549Z,60.49
2023-03-11T18:11:28.363Z,63.80
2023-03-11T18:13:55.310Z,67.04
2023-03-11T18:16:25.216Z,67.40
2023-03-11T18:19:03.665Z,67.92
2023-03-11T18:21:33.792Z,68.71
2023-03-11T18:24:00.792Z,69.62
2023-03-11T18:26:30.487Z,70.02
2023-03-11T18:28:58.960Z,71.85
2023-03-11T18:31:26.891Z,72.35
2023-03-11T18:33:56.640Z,72.73
2023-03-11T18:36:26.183Z,72.24
2023-03-11T18:38:55.588Z,73.02
2023-03-11T18:41:25.504Z,72.53
2023-03-11T18:43:59.095Z,73.13
2023-03-11T18:46:31.473Z,73.63
2023-03-11T18:48:59.696Z,73.92
2023-03-11T18:51:28.267Z,74.72
2023-03-11T18:53:54.796Z,74.04
2023-03-11T18:56:23.009Z,75.04
2023-03-11T18:58:49.354Z,74.13
2023-03-11T19:01:18.038Z,75.33
2023-03-11T19:03:50.455Z,76.35
2023-03-11T19:06:19.876Z,75.95
2023-03-11T19:08:48.697Z,74.78
2023-03-11T19:11:18.522Z,74.69
2023-03-11T19:13:47.697Z,74.37
2023-03-11T19:16:17.260Z,73.68
2023-03-11T19:18:44.474Z,74.58
2023-03-11T19:21:15.713Z,74.67
2023-03-11T19:23:42.592Z,74.54
2023-03-11T19:26:09.416Z,75.52
2023-03-11T19:28:38.022Z,75.48
2023-03-11T19:31:05.400Z,77.00
2023-03-11T19:33:32.163Z,77.52
2023-03-11T19:36:03.419Z,78.14
2023-03-11T19:38:30.396Z,78.66
2023-03-11T19:41:04.667Z,78.94
2023-03-11T19:43:36.819Z,78.08
2023-03-11T19:46:13.755Z,78.02
2023-03-11T19:48:42.475Z,78.73
2023-03-11T19:51:09.089Z,77.23
2023-03-11T19:53:36.677Z,78.06
2023-03-11T19:56:05.615Z,79.04
2023-03-11T19:58:34.756Z,78.78
2023-03-11T20:01:01.359Z,79.09
2023-03-11T20:03:30.023Z,79.39
2023-03-11T20:05:59.279Z,79.51
2023-03-11T20:08:31.148Z,80.67
2023-03-11T20:11:00.888Z,80.26
2023-03-11T20:13:27.630Z,80.84
2023-03-11T20:16:02.069Z,80.76
2023-03-11T20:18:28.658Z,81.24
2023-03-11T20:20:55.129Z,81.31
2023-03-11T20:23:21.538Z,82.02
2023-03-11T20:28:23.182Z,82.73
2023-03-11T20:30:50.762Z,82.95
2023-03-11T23:12:39.698Z,86.29
2023-03-11T23:15:09.464Z,87.13
2023-03-11T23:17:41.563Z,86.73
2023-03-11T23:20:11.872Z,87.78
2023-03-11T23:22:40.947Z,87.05
2023-03-11T23:25:14.808Z,88.10
2023-03-11T23:27:43.077Z,88.31
2023-03-11T23:30:17.129Z,87.79
2023-03-11T23:32:44.669Z,87.39
2023-03-11T23:35:12.168Z,87.64
2023-03-11T23:37:38.736Z,87.42
2023-03-11T23:40:09.285Z,88.42
2023-03-11T23:42:36.112Z,88.01
2023-03-11T23:45:02.963Z,88.42
2023-03-11T23:47:32.403Z,87.67
2023-03-11T23:49:58.809Z,87.73
2023-03-11T23:52:27.809Z,88.30
2023-03-11T23:54:55.179Z,87.68
2023-03-11T23:57:21.801Z,87.06
2023-03-11T23:59:54.901Z,87.30
